sensor_id;sensor_type;location;lat;lon;timestamp;P1;durP1;ratioP1;P2;durP2;ratioP2
4313;SDS011;2170;48.794;9.182;2023-09-07T00:02:46;7.70;;;6.90;;
4313;SDS011;2170;48.794;9.182;2023-09-07T00:05:26;7.33;;;5.90;;
4313;SDS011;2170;48.794;9.182;2023-09-07T00:11:12;8.13;;;6.20;;
4313;SDS011;2170;48.794;9.182;2023-09-07T00:13:51;9.73;;;7.30;;
4313;SDS011;2170;48.794;9.182;2023-09-07T00:16:30;8.17;;;6.50;;
4313;SDS011;2170;48.794;9.182;2023-09-07T00:19:19;6.90;;;6.20;;
4313;SDS011;2170;48.794;9.182;2023-09-07T00:22:12;6.23;;;5.73;;
4313;SDS011;2170;48.794;9.182;2023-09-07T00:25:12;7.93;;;6.50;;
4313;SDS011;2170;48.794;9.182;2023-09-07T00:27:46;7.23;;;6.63;;
4313;SDS011;2170;48.794;9.182;2023-09-07T00:30:32;7.33;;;6.63;;
4313;SDS011;2170;48.794;9.182;2023-09-07T00:33:23;7.37;;;6.00;;
4313;SDS011;2170;48.794;9.182;2023-09-07T00:36:18;7.70;;;7.00;;
4313;SDS011;2170;48.794;9.182;2023-09-07T00:39:09;7.30;;;6.60;;
4313;SDS011;2170;48.794;9.182;2023-09-07T00:41:49;6.63;;;6.03;;
4313;SDS011;2170;48.794;9.182;2023-09-07T00:44:23;7.43;;;6.60;;
4313;SDS011;2170;48.794;9.182;2023-09-07T00:47:09;6.80;;;6.30;;
4313;SDS011;2170;48.794;9.182;2023-09-07T00:49:52;6.57;;;5.70;;
4313;SDS011;2170;48.794;9.182;2023-09-07T00:55:41;7.13;;;6.60;;
4313;SDS011;2170;48.794;9.182;2023-09-07T00:58:32;6.80;;;6.20;;
4313;SDS011;2170;48.794;9.182;2023-09-07T01:01:17;6.90;;;6.30;;
4313;SDS011;2170;48.794;9.182;2023-09-07T01:04:12;7.13;;;6.53;;
4313;SDS011;2170;48.794;9.182;2023-09-07T01:06:52;7.97;;;7.27;;
4313;SDS011;2170;48.794;9.182;2023-09-07T01:12:31;7.53;;;6.80;;
4313;SDS011;2170;48.794;9.182;2023-09-07T01:15:03;7.30;;;6.60;;
4313;SDS011;2170;48.794;9.182;2023-09-07T01:17:58;7.80;;;7.07;;
4313;SDS011;2170;48.794;9.182;2023-09-07T01:20:30;7.33;;;6.73;;
4313;SDS011;2170;48.794;9.182;2023-09-07T01:23:19;7.43;;;6.73;;
4313;SDS011;2170;48.794;9.182;2023-09-07T01:25:59;7.53;;;6.83;;
4313;SDS011;2170;48.794;9.182;2023-09-07T01:28:54;7.47;;;6.77;;
4313;SDS011;2170;48.794;9.182;2023-09-07T01:31:23;7.40;;;6.57;;
4313;SDS011;2170;48.794;9.182;2023-09-07T01:34:29;7.30;;;6.63;;
4313;SDS011;2170;48.794;9.182;2023-09-07T01:37:12;8.03;;;7.20;;
4313;SDS011;2170;48.794;9.182;2023-09-07T01:39:50;9.57;;;7.20;;
4313;SDS011;2170;48.794;9.182;2023-09-07T01:42:33;7.80;;;7.20;;
4313;SDS011;2170;48.794;9.182;2023-09-07T01:45:14;7.47;;;6.87;;
4313;SDS011;2170;48.794;9.182;2023-09-07T01:48:20;7.70;;;7.10;;
4313;SDS011;2170;48.794;9.182;2023-09-07T01:51:05;7.30;;;6.60;;
4313;SDS011;2170;48.794;9.182;2023-09-07T01:54:04;7.47;;;6.87;;
4313;SDS011;2170;48.794;9.182;2023-09-07T01:56:53;7.87;;;7.17;;
4313;SDS011;2170;48.794;9.182;2023-09-07T01:59:34;7.73;;;7.03;;
4313;SDS011;2170;48.794;9.182;2023-09-07T02:02:19;7.00;;;6.40;;
4313;SDS011;2170;48.794;9.182;2023-09-07T02:05:14;7.33;;;6.73;;
4313;SDS011;2170;48.794;9.182;2023-09-07T02:08:01;9.63;;;7.20;;
4313;SDS011;2170;48.794;9.182;2023-09-07T02:23:53;8.13;;;7.40;;
4313;SDS011;2170;48.794;9.182;2023-09-07T02:26:35;8.63;;;7.63;;
4313;SDS011;2170;48.794;9.182;2023-09-07T02:29:32;8.50;;;7.70;;
4313;SDS011;2170;48.794;9.182;2023-09-07T02:35:13;9.63;;;8.83;;
4313;SDS011;2170;48.794;9.182;2023-09-07T02:38:02;10.47;;;9.37;;
4313;SDS011;2170;48.794;9.182;2023-09-07T02:40:58;9.27;;;8.07;;
4313;SDS011;2170;48.794;9.182;2023-09-07T02:43:36;8.87;;;8.10;;
4313;SDS011;2170;48.794;9.182;2023-09-07T02:46:48;8.90;;;8.00;;
4313;SDS011;2170;48.794;9.182;2023-09-07T02:49:53;9.80;;;9.00;;
4313;SDS011;2170;48.794;9.182;2023-09-07T03:57:27;9.13;;;8.30;;
4313;SDS011;2170;48.794;9.182;2023-09-07T04:00:45;10.23;;;8.83;;
4313;SDS011;2170;48.794;9.182;2023-09-07T04:03:34;10.80;;;8.80;;
4313;SDS011;2170;48.794;9.182;2023-09-07T04:06:54;9.20;;;8.40;;
4313;SDS011;2170;48.794;9.182;2023-09-07T04:09:39;11.97;;;9.10;;
4313;SDS011;2170;48.794;9.182;2023-09-07T04:12:47;10.00;;;9.00;;
4313;SDS011;2170;48.794;9.182;2023-09-07T04:43:28;10.13;;;8.67;;
4313;SDS011;2170;48.794;9.182;2023-09-07T04:46:17;9.80;;;9.00;;
4313;SDS011;2170;48.794;9.182;2023-09-07T04:48:57;11.50;;;9.87;;
4313;SDS011;2170;48.794;9.182;2023-09-07T04:51:32;10.27;;;8.50;;
4313;SDS011;2170;48.794;9.182;2023-09-07T05:01:18;11.23;;;10.10;;
4313;SDS011;2170;48.794;9.182;2023-09-07T05:03:49;11.10;;;9.50;;
4313;SDS011;2170;48.794;9.182;2023-09-07T05:06:26;10.77;;;9.87;;
4313;SDS011;2170;48.794;9.182;2023-09-07T05:09:15;11.00;;;9.90;;
4313;SDS011;2170;48.794;9.182;2023-09-07T05:11:49;10.70;;;9.70;;
4313;SDS011;2170;48.794;9.182;2023-09-07T05:14:23;11.20;;;10.00;;
4313;SDS011;2170;48.794;9.182;2023-09-07T05:17:04;11.33;;;10.17;;
4313;SDS011;2170;48.794;9.182;2023-09-07T05:19:42;11.43;;;10.27;;
4313;SDS011;2170;48.794;9.182;2023-09-07T05:22:29;11.43;;;9.87;;
4313;SDS011;2170;48.794;9.182;2023-09-07T06:40:35;12.17;;;10.97;;
4313;SDS011;2170;48.794;9.182;2023-09-07T06:43:09;12.67;;;11.57;;
4313;SDS011;2170;48.794;9.182;2023-09-07T06:45:54;13.50;;;10.20;;
4313;SDS011;2170;48.794;9.182;2023-09-07T06:48:25;11.60;;;10.37;;
4313;SDS011;2170;48.794;9.182;2023-09-07T06:51:01;11.30;;;10.10;;
4313;SDS011;2170;48.794;9.182;2023-09-07T06:57:35;12.00;;;10.80;;
4313;SDS011;2170;48.794;9.182;2023-09-07T07:00:04;15.97;;;11.80;;
4313;SDS011;2170;48.794;9.182;2023-09-07T07:02:52;11.63;;;10.43;;
4313;SDS011;2170;48.794;9.182;2023-09-07T07:05:29;13.07;;;11.73;;
4313;SDS011;2170;48.794;9.182;2023-09-07T07:08:01;13.53;;;12.13;;
4313;SDS011;2170;48.794;9.182;2023-09-07T07:10:31;13.07;;;11.73;;
4313;SDS011;2170;48.794;9.182;2023-09-07T07:13:01;15.50;;;12.30;;
4313;SDS011;2170;48.794;9.182;2023-09-07T07:15:39;15.53;;;12.27;;
4313;SDS011;2170;48.794;9.182;2023-09-07T07:18:09;15.17;;;13.63;;
4313;SDS011;2170;48.794;9.182;2023-09-07T07:20:43;12.80;;;11.53;;
4313;SDS011;2170;48.794;9.182;2023-09-07T07:23:11;15.20;;;11.23;;
4313;SDS011;2170;48.794;9.182;2023-09-07T07:25:38;15.23;;;11.00;;
4313;SDS011;2170;48.794;9.182;2023-09-07T07:28:15;13.30;;;11.90;;
4313;SDS011;2170;48.794;9.182;2023-09-07T07:31:08;12.10;;;11.10;;
4313;SDS011;2170;48.794;9.182;2023-09-07T07:33:40;11.27;;;10.00;;
4313;SDS011;2170;48.794;9.182;2023-09-07T07:36:16;17.00;;;11.33;;
4313;SDS011;2170;48.794;9.182;2023-09-07T07:39:02;14.47;;;12.03;;
4313;SDS011;2170;48.794;9.182;2023-09-07T07:41:47;10.30;;;9.50;;
4313;SDS011;2170;48.794;9.182;2023-09-07T07:44:27;15.40;;;10.50;;
4313;SDS011;2170;48.794;9.182;2023-09-07T07:47:07;9.83;;;9.03;;
4313;SDS011;2170;48.794;9.182;2023-09-07T07:49:49;10.80;;;9.60;;
4313;SDS011;2170;48.794;9.182;2023-09-07T07:52:33;10.20;;;9.03;;
4313;SDS011;2170;48.794;9.182;2023-09-07T07:55:06;9.77;;;8.77;;
4313;SDS011;2170;48.794;9.182;2023-09-07T07:57:39;9.10;;;8.20;;
4313;SDS011;2170;48.794;9.182;2023-09-07T08:00:32;10.20;;;8.80;;
4313;SDS011;2170;48.794;9.182;2023-09-07T08:03:07;9.67;;;8.80;;
4313;SDS011;2170;48.794;9.182;2023-09-07T08:05:42;9.80;;;8.90;;
4313;SDS011;2170;48.794;9.182;2023-09-07T08:08:20;12.10;;;9.23;;
4313;SDS011;2170;48.794;9.182;2023-09-07T08:10:58;9.80;;;8.97;;
4313;SDS011;2170;48.794;9.182;2023-09-07T08:13:38;9.70;;;8.80;;
4313;SDS011;2170;48.794;9.182;2023-09-07T08:16:19;11.40;;;8.87;;
4313;SDS011;2170;48.794;9.182;2023-09-07T08:19:00;8.27;;;7.67;;
4313;SDS011;2170;48.794;9.182;2023-09-07T08:21:34;8.13;;;7.33;;
4313;SDS011;2170;48.794;9.182;2023-09-07T08:24:23;8.67;;;8.03;;
4313;SDS011;2170;48.794;9.182;2023-09-07T08:27:11;9.03;;;8.33;;
4313;SDS011;2170;48.794;9.182;2023-09-07T08:29:50;8.03;;;7.40;;
4313;SDS011;2170;48.794;9.182;2023-09-07T08:32:30;8.67;;;7.93;;
4313;SDS011;2170;48.794;9.182;2023-09-07T08:35:19;8.17;;;7.47;;
4313;SDS011;2170;48.794;9.182;2023-09-07T08:38:09;8.70;;;8.00;;
4313;SDS011;2170;48.794;9.182;2023-09-07T08:40:44;7.47;;;6.73;;
4313;SDS011;2170;48.794;9.182;2023-09-07T08:43:20;8.73;;;7.93;;
4313;SDS011;2170;48.794;9.182;2023-09-07T08:45:55;8.43;;;7.83;;
4313;SDS011;2170;48.794;9.182;2023-09-07T08:48:35;8.13;;;7.50;;
4313;SDS011;2170;48.794;9.182;2023-09-07T08:51:07;7.23;;;6.73;;
4313;SDS011;2170;48.794;9.182;2023-09-07T08:53:49;8.90;;;7.27;;
4313;SDS011;2170;48.794;9.182;2023-09-07T08:56:17;8.60;;;7.83;;
4313;SDS011;2170;48.794;9.182;2023-09-07T08:58:50;7.37;;;6.67;;
4313;SDS011;2170;48.794;9.182;2023-09-07T09:01:22;8.47;;;7.80;;
4313;SDS011;2170;48.794;9.182;2023-09-07T09:03:58;8.07;;;7.33;;
4313;SDS011;2170;48.794;9.182;2023-09-07T09:06:33;8.87;;;7.97;;
4313;SDS011;2170;48.794;9.182;2023-09-07T09:09:11;8.03;;;7.30;;
4313;SDS011;2170;48.794;9.182;2023-09-07T09:11:53;8.63;;;7.80;;
4313;SDS011;2170;48.794;9.182;2023-09-07T09:14:22;8.20;;;7.70;;
4313;SDS011;2170;48.794;9.182;2023-09-07T09:16:56;8.57;;;7.87;;
4313;SDS011;2170;48.794;9.182;2023-09-07T09:19:36;8.37;;;7.47;;
4313;SDS011;2170;48.794;9.182;2023-09-07T09:22:19;13.23;;;8.00;;
4313;SDS011;2170;48.794;9.182;2023-09-07T09:24:51;9.83;;;7.20;;
4313;SDS011;2170;48.794;9.182;2023-09-07T09:27:31;7.30;;;6.80;;
4313;SDS011;2170;48.794;9.182;2023-09-07T09:33:10;7.90;;;7.23;;
4313;SDS011;2170;48.794;9.182;2023-09-07T09:35:57;9.27;;;8.37;;
4313;SDS011;2170;48.794;9.182;2023-09-07T09:38:34;7.60;;;6.93;;
4313;SDS011;2170;48.794;9.182;2023-09-07T09:41:27;8.20;;;7.50;;
4313;SDS011;2170;48.794;9.182;2023-09-07T09:44:02;7.43;;;6.83;;
4313;SDS011;2170;48.794;9.182;2023-09-07T09:46:38;7.90;;;7.20;;
4313;SDS011;2170;48.794;9.182;2023-09-07T09:49:19;7.07;;;6.47;;
4313;SDS011;2170;48.794;9.182;2023-09-07T09:51:57;7.80;;;6.43;;
4313;SDS011;2170;48.794;9.182;2023-09-07T09:54:30;7.77;;;7.17;;
4313;SDS011;2170;48.794;9.182;2023-09-07T09:57:07;8.37;;;7.67;;
4313;SDS011;2170;48.794;9.182;2023-09-07T09:59:48;8.40;;;7.60;;
4313;SDS011;2170;48.794;9.182;2023-09-07T10:05:28;8.40;;;7.70;;
4313;SDS011;2170;48.794;9.182;2023-09-07T10:06:25;7.67;;;7.03;;
4313;SDS011;2170;48.794;9.182;2023-09-07T10:09:11;8.60;;;7.80;;
4313;SDS011;2170;48.794;9.182;2023-09-07T10:11:54;9.10;;;8.20;;
4313;SDS011;2170;48.794;9.182;2023-09-07T10:14:40;8.53;;;7.70;;
4313;SDS011;2170;48.794;9.182;2023-09-07T10:20:01;8.37;;;7.70;;
4313;SDS011;2170;48.794;9.182;2023-09-07T10:22:34;7.60;;;7.00;;
4313;SDS011;2170;48.794;9.182;2023-09-07T10:25:06;7.47;;;6.80;;
4313;SDS011;2170;48.794;9.182;2023-09-07T10:27:53;8.67;;;6.70;;
4313;SDS011;2170;48.794;9.182;2023-09-07T10:30:36;7.87;;;7.17;;
4313;SDS011;2170;48.794;9.182;2023-09-07T10:33:19;8.00;;;7.30;;
4313;SDS011;2170;48.794;9.182;2023-09-07T10:35:48;7.47;;;6.93;;
4313;SDS011;2170;48.794;9.182;2023-09-07T10:38:22;9.30;;;6.90;;
4313;SDS011;2170;48.794;9.182;2023-09-07T10:40:58;10.93;;;6.97;;
4313;SDS011;2170;48.794;9.182;2023-09-07T10:43:31;8.27;;;7.40;;
4313;SDS011;2170;48.794;9.182;2023-09-07T10:46:03;8.90;;;8.10;;
4313;SDS011;2170;48.794;9.182;2023-09-07T10:48:39;8.47;;;7.67;;
4313;SDS011;2170;48.794;9.182;2023-09-07T10:51:09;8.63;;;7.93;;
4313;SDS011;2170;48.794;9.182;2023-09-07T10:53:41;7.50;;;6.90;;
4313;SDS011;2170;48.794;9.182;2023-09-07T10:56:15;8.03;;;7.43;;
4313;SDS011;2170;48.794;9.182;2023-09-07T10:58:53;7.30;;;6.80;;
4313;SDS011;2170;48.794;9.182;2023-09-07T11:01:25;7.47;;;6.97;;
4313;SDS011;2170;48.794;9.182;2023-09-07T11:03:58;7.03;;;6.33;;
4313;SDS011;2170;48.794;9.182;2023-09-07T11:06:30;7.40;;;6.20;;
4313;SDS011;2170;48.794;9.182;2023-09-07T11:09:09;6.77;;;6.33;;
4313;SDS011;2170;48.794;9.182;2023-09-07T11:11:56;8.00;;;6.83;;
4313;SDS011;2170;48.794;9.182;2023-09-07T11:14:42;6.97;;;6.50;;
4313;SDS011;2170;48.794;9.182;2023-09-07T11:17:25;6.50;;;6.10;;
4313;SDS011;2170;48.794;9.182;2023-09-07T11:20:11;7.43;;;6.93;;
4313;SDS011;2170;48.794;9.182;2023-09-07T11:23:00;6.80;;;6.30;;
4313;SDS011;2170;48.794;9.182;2023-09-07T11:25:35;8.67;;;7.97;;
4313;SDS011;2170;48.794;9.182;2023-09-07T11:28:07;7.10;;;6.60;;
4313;SDS011;2170;48.794;9.182;2023-09-07T11:30:47;7.03;;;6.47;;
4313;SDS011;2170;48.794;9.182;2023-09-07T11:33:20;7.57;;;6.40;;
4313;SDS011;2170;48.794;9.182;2023-09-07T11:36:00;7.07;;;6.37;;
4313;SDS011;2170;48.794;9.182;2023-09-07T11:38:35;7.37;;;6.47;;
4313;SDS011;2170;48.794;9.182;2023-09-07T11:41:16;6.60;;;6.00;;
4313;SDS011;2170;48.794;9.182;2023-09-07T11:43:54;6.37;;;5.97;;
4313;SDS011;2170;48.794;9.182;2023-09-07T11:46:30;6.07;;;5.67;;
4313;SDS011;2170;48.794;9.182;2023-09-07T11:49:07;5.97;;;5.47;;
4313;SDS011;2170;48.794;9.182;2023-09-07T11:51:50;5.50;;;5.03;;
4313;SDS011;2170;48.794;9.182;2023-09-07T11:54:25;7.30;;;6.80;;
4313;SDS011;2170;48.794;9.182;2023-09-07T11:56:57;6.27;;;5.87;;
4313;SDS011;2170;48.794;9.182;2023-09-07T11:59:43;6.00;;;5.43;;
4313;SDS011;2170;48.794;9.182;2023-09-07T12:02:19;6.60;;;5.87;;
4313;SDS011;2170;48.794;9.182;2023-09-07T12:04:57;6.20;;;5.60;;
4313;SDS011;2170;48.794;9.182;2023-09-07T12:07:39;6.10;;;5.70;;
4313;SDS011;2170;48.794;9.182;2023-09-07T12:10:35;5.50;;;5.10;;
4313;SDS011;2170;48.794;9.182;2023-09-07T12:16:03;5.23;;;4.83;;
4313;SDS011;2170;48.794;9.182;2023-09-07T12:18:35;5.23;;;4.93;;
4313;SDS011;2170;48.794;9.182;2023-09-07T12:21:20;5.40;;;5.00;;
4313;SDS011;2170;48.794;9.182;2023-09-07T12:23:55;5.93;;;5.27;;
4313;SDS011;2170;48.794;9.182;2023-09-07T12:26:36;5.83;;;5.50;;
4313;SDS011;2170;48.794;9.182;2023-09-07T12:29:06;5.00;;;4.70;;
4313;SDS011;2170;48.794;9.182;2023-09-07T12:32:00;7.27;;;5.47;;
4313;SDS011;2170;48.794;9.182;2023-09-07T12:34:57;5.67;;;5.17;;
4313;SDS011;2170;48.794;9.182;2023-09-07T12:37:44;5.20;;;4.80;;
4313;SDS011;2170;48.794;9.182;2023-09-07T12:40:18;5.80;;;5.27;;
4313;SDS011;2170;48.794;9.182;2023-09-07T12:43:01;5.07;;;4.67;;
4313;SDS011;2170;48.794;9.182;2023-09-07T12:45:47;5.17;;;4.87;;
4313;SDS011;2170;48.794;9.182;2023-09-07T12:48:27;5.70;;;5.30;;
4313;SDS011;2170;48.794;9.182;2023-09-07T12:51:15;5.10;;;4.60;;
4313;SDS011;2170;48.794;9.182;2023-09-07T12:53:54;5.67;;;5.27;;
4313;SDS011;2170;48.794;9.182;2023-09-07T12:56:46;5.70;;;5.30;;
4313;SDS011;2170;48.794;9.182;2023-09-07T12:59:24;5.23;;;4.80;;
4313;SDS011;2170;48.794;9.182;2023-09-07T13:02:07;5.40;;;5.10;;
4313;SDS011;2170;48.794;9.182;2023-09-07T13:04:53;5.77;;;5.37;;
4313;SDS011;2170;48.794;9.182;2023-09-07T13:11:46;8.73;;;8.03;;
4313;SDS011;2170;48.794;9.182;2023-09-07T13:21:34;5.27;;;4.87;;
4313;SDS011;2170;48.794;9.182;2023-09-07T13:24:17;5.70;;;4.83;;
4313;SDS011;2170;48.794;9.182;2023-09-07T13:26:55;4.73;;;4.43;;
4313;SDS011;2170;48.794;9.182;2023-09-07T13:29:30;4.40;;;4.10;;
4313;SDS011;2170;48.794;9.182;2023-09-07T13:32:07;4.87;;;4.57;;
4313;SDS011;2170;48.794;9.182;2023-09-07T13:34:48;5.47;;;4.90;;
4313;SDS011;2170;48.794;9.182;2023-09-07T13:37:28;4.70;;;4.30;;
4313;SDS011;2170;48.794;9.182;2023-09-07T13:39:59;5.30;;;4.90;;
4313;SDS011;2170;48.794;9.182;2023-09-07T13:42:37;4.70;;;4.40;;
4313;SDS011;2170;48.794;9.182;2023-09-07T13:45:23;4.47;;;4.17;;
4313;SDS011;2170;48.794;9.182;2023-09-07T13:47:59;4.33;;;4.03;;
4313;SDS011;2170;48.794;9.182;2023-09-07T13:50:42;4.47;;;4.17;;
4313;SDS011;2170;48.794;9.182;2023-09-07T13:53:26;4.50;;;4.20;;
4313;SDS011;2170;48.794;9.182;2023-09-07T13:56:06;4.53;;;4.23;;
4313;SDS011;2170;48.794;9.182;2023-09-07T13:58:45;4.90;;;4.60;;
4313;SDS011;2170;48.794;9.182;2023-09-07T14:01:59;5.03;;;4.50;;
4313;SDS011;2170;48.794;9.182;2023-09-07T14:05:10;5.90;;;4.50;;
4313;SDS011;2170;48.794;9.182;2023-09-07T14:08:00;4.80;;;4.40;;
4313;SDS011;2170;48.794;9.182;2023-09-07T14:10:46;4.57;;;4.30;;
4313;SDS011;2170;48.794;9.182;2023-09-07T14:13:24;4.67;;;4.30;;
4313;SDS011;2170;48.794;9.182;2023-09-07T14:16:15;5.00;;;4.70;;
4313;SDS011;2170;48.794;9.182;2023-09-07T14:18:56;4.23;;;4.03;;
4313;SDS011;2170;48.794;9.182;2023-09-07T14:21:38;4.37;;;4.07;;
4313;SDS011;2170;48.794;9.182;2023-09-07T14:24:16;4.80;;;4.40;;
4313;SDS011;2170;48.794;9.182;2023-09-07T14:27:03;4.90;;;4.60;;
4313;SDS011;2170;48.794;9.182;2023-09-07T14:29:46;4.63;;;4.33;;
4313;SDS011;2170;48.794;9.182;2023-09-07T14:32:28;4.80;;;4.50;;
4313;SDS011;2170;48.794;9.182;2023-09-07T14:34:58;4.10;;;3.80;;
4313;SDS011;2170;48.794;9.182;2023-09-07T14:37:31;4.77;;;4.30;;
4313;SDS011;2170;48.794;9.182;2023-09-07T14:40:01;4.57;;;4.17;;
4313;SDS011;2170;48.794;9.182;2023-09-07T14:42:35;5.07;;;4.67;;
4313;SDS011;2170;48.794;9.182;2023-09-07T14:45:10;4.97;;;4.67;;
4313;SDS011;2170;48.794;9.182;2023-09-07T14:47:50;4.53;;;4.23;;
4313;SDS011;2170;48.794;9.182;2023-09-07T14:50:21;4.37;;;4.17;;
4313;SDS011;2170;48.794;9.182;2023-09-07T14:52:53;4.47;;;4.23;;
4313;SDS011;2170;48.794;9.182;2023-09-07T14:55:28;5.07;;;4.73;;
4313;SDS011;2170;48.794;9.182;2023-09-07T14:58:07;4.70;;;4.30;;
4313;SDS011;2170;48.794;9.182;2023-09-07T15:00:44;5.33;;;4.20;;
4313;SDS011;2170;48.794;9.182;2023-09-07T15:03:16;4.87;;;4.57;;
4313;SDS011;2170;48.794;9.182;2023-09-07T15:05:51;4.53;;;4.23;;
4313;SDS011;2170;48.794;9.182;2023-09-07T15:08:32;4.40;;;4.10;;
4313;SDS011;2170;48.794;9.182;2023-09-07T15:11:04;4.67;;;4.37;;
4313;SDS011;2170;48.794;9.182;2023-09-07T15:13:45;5.60;;;4.40;;
4313;SDS011;2170;48.794;9.182;2023-09-07T15:16:40;4.47;;;4.17;;
4313;SDS011;2170;48.794;9.182;2023-09-07T15:19:13;4.47;;;4.10;;
4313;SDS011;2170;48.794;9.182;2023-09-07T15:21:52;4.60;;;4.30;;
4313;SDS011;2170;48.794;9.182;2023-09-07T15:24:50;5.43;;;4.73;;
4313;SDS011;2170;48.794;9.182;2023-09-07T15:27:36;5.57;;;4.50;;
4313;SDS011;2170;48.794;9.182;2023-09-07T15:30:18;4.53;;;4.20;;
4313;SDS011;2170;48.794;9.182;2023-09-07T15:32:57;4.83;;;4.53;;
4313;SDS011;2170;48.794;9.182;2023-09-07T15:35:29;4.87;;;4.47;;
4313;SDS011;2170;48.794;9.182;2023-09-07T15:38:10;5.63;;;5.07;;
4313;SDS011;2170;48.794;9.182;2023-09-07T15:40:59;5.23;;;4.83;;
4313;SDS011;2170;48.794;9.182;2023-09-07T15:43:37;4.83;;;4.40;;
4313;SDS011;2170;48.794;9.182;2023-09-07T15:46:11;4.87;;;4.57;;
4313;SDS011;2170;48.794;9.182;2023-09-07T15:48:45;4.97;;;4.67;;
4313;SDS011;2170;48.794;9.182;2023-09-07T15:51:35;5.23;;;4.83;;
4313;SDS011;2170;48.794;9.182;2023-09-07T15:54:13;6.30;;;4.60;;
4313;SDS011;2170;48.794;9.182;2023-09-07T15:56:44;6.37;;;4.33;;
4313;SDS011;2170;48.794;9.182;2023-09-07T15:59:23;5.40;;;4.90;;
4313;SDS011;2170;48.794;9.182;2023-09-07T16:01:57;4.80;;;4.50;;
4313;SDS011;2170;48.794;9.182;2023-09-07T16:04:33;5.23;;;4.83;;
4313;SDS011;2170;48.794;9.182;2023-09-07T16:07:27;5.30;;;4.23;;
4313;SDS011;2170;48.794;9.182;2023-09-07T16:10:06;4.90;;;4.50;;
4313;SDS011;2170;48.794;9.182;2023-09-07T16:12:43;4.70;;;4.30;;
4313;SDS011;2170;48.794;9.182;2023-09-07T16:15:26;4.97;;;4.60;;
4313;SDS011;2170;48.794;9.182;2023-09-07T16:18:05;5.10;;;4.70;;
4313;SDS011;2170;48.794;9.182;2023-09-07T16:20:36;4.63;;;4.27;;
4313;SDS011;2170;48.794;9.182;2023-09-07T16:23:25;4.60;;;4.30;;
4313;SDS011;2170;48.794;9.182;2023-09-07T16:25:56;5.50;;;4.87;;
4313;SDS011;2170;48.794;9.182;2023-09-07T16:28:32;8.83;;;4.50;;
4313;SDS011;2170;48.794;9.182;2023-09-07T16:31:03;4.67;;;4.27;;
4313;SDS011;2170;48.794;9.182;2023-09-07T16:36:32;8.83;;;8.13;;
4313;SDS011;2170;48.794;9.182;2023-09-07T16:39:11;4.90;;;4.50;;
4313;SDS011;2170;48.794;9.182;2023-09-07T16:41:51;5.57;;;5.07;;
4313;SDS011;2170;48.794;9.182;2023-09-07T16:44:32;4.20;;;4.00;;
4313;SDS011;2170;48.794;9.182;2023-09-07T16:47:05;5.30;;;4.90;;
4313;SDS011;2170;48.794;9.182;2023-09-07T16:49:42;4.43;;;4.13;;
4313;SDS011;2170;48.794;9.182;2023-09-07T16:52:14;5.13;;;4.73;;
4313;SDS011;2170;48.794;9.182;2023-09-07T16:54:46;5.37;;;4.87;;
4313;SDS011;2170;48.794;9.182;2023-09-07T16:57:22;5.50;;;5.10;;
4313;SDS011;2170;48.794;9.182;2023-09-07T16:59:55;5.40;;;5.00;;
4313;SDS011;2170;48.794;9.182;2023-09-07T17:02:25;5.53;;;5.03;;
4313;SDS011;2170;48.794;9.182;2023-09-07T17:05:00;5.43;;;5.03;;
4313;SDS011;2170;48.794;9.182;2023-09-07T17:07:28;4.67;;;4.30;;
4313;SDS011;2170;48.794;9.182;2023-09-07T17:10:03;5.60;;;5.10;;
4313;SDS011;2170;48.794;9.182;2023-09-07T17:12:38;4.80;;;4.40;;
4313;SDS011;2170;48.794;9.182;2023-09-07T17:15:25;5.80;;;5.30;;
4313;SDS011;2170;48.794;9.182;2023-09-07T17:18:08;5.33;;;4.77;;
4313;SDS011;2170;48.794;9.182;2023-09-07T17:20:40;5.27;;;4.87;;
4313;SDS011;2170;48.794;9.182;2023-09-07T17:23:10;9.30;;;8.60;;
4313;SDS011;2170;48.794;9.182;2023-09-07T17:25:41;5.67;;;5.30;;
4313;SDS011;2170;48.794;9.182;2023-09-07T17:28:19;5.27;;;4.87;;
4313;SDS011;2170;48.794;9.182;2023-09-07T17:30:50;5.10;;;4.70;;
4313;SDS011;2170;48.794;9.182;2023-09-07T17:33:21;5.33;;;4.83;;
4313;SDS011;2170;48.794;9.182;2023-09-07T17:35:56;5.77;;;5.17;;
4313;SDS011;2170;48.794;9.182;2023-09-07T17:38:35;7.30;;;5.87;;
4313;SDS011;2170;48.794;9.182;2023-09-07T17:41:20;6.87;;;6.30;;
4313;SDS011;2170;48.794;9.182;2023-09-07T17:44:02;6.03;;;5.50;;
4313;SDS011;2170;48.794;9.182;2023-09-07T17:46:35;8.10;;;7.30;;
4313;SDS011;2170;48.794;9.182;2023-09-07T17:49:09;6.53;;;5.93;;
4313;SDS011;2170;48.794;9.182;2023-09-07T17:51:51;7.90;;;6.87;;
4313;SDS011;2170;48.794;9.182;2023-09-07T17:54:24;9.10;;;5.90;;
4313;SDS011;2170;48.794;9.182;2023-09-07T17:56:58;7.27;;;6.60;;
4313;SDS011;2170;48.794;9.182;2023-09-07T17:59:33;6.87;;;6.27;;
4313;SDS011;2170;48.794;9.182;2023-09-07T18:02:01;7.50;;;6.50;;
4313;SDS011;2170;48.794;9.182;2023-09-07T18:04:32;7.30;;;6.70;;
4313;SDS011;2170;48.794;9.182;2023-09-07T18:09:58;8.37;;;7.57;;
4313;SDS011;2170;48.794;9.182;2023-09-07T18:12:40;7.17;;;6.63;;
4313;SDS011;2170;48.794;9.182;2023-09-07T18:15:28;7.37;;;6.77;;
4313;SDS011;2170;48.794;9.182;2023-09-07T18:18:13;10.93;;;9.07;;
4313;SDS011;2170;48.794;9.182;2023-09-07T18:20:51;14.30;;;9.60;;
4313;SDS011;2170;48.794;9.182;2023-09-07T18:23:27;12.57;;;10.07;;
4313;SDS011;2170;48.794;9.182;2023-09-07T18:26:01;13.27;;;10.53;;
4313;SDS011;2170;48.794;9.182;2023-09-07T18:28:43;16.70;;;11.63;;
4313;SDS011;2170;48.794;9.182;2023-09-07T18:31:17;12.27;;;10.40;;
4313;SDS011;2170;48.794;9.182;2023-09-07T18:33:55;10.70;;;9.33;;
4313;SDS011;2170;48.794;9.182;2023-09-07T18:36:31;10.33;;;8.27;;
4313;SDS011;2170;48.794;9.182;2023-09-07T18:39:12;10.83;;;9.67;;
4313;SDS011;2170;48.794;9.182;2023-09-07T18:41:48;11.00;;;8.23;;
4313;SDS011;2170;48.794;9.182;2023-09-07T18:44:26;9.23;;;8.33;;
4313;SDS011;2170;48.794;9.182;2023-09-07T18:50:47;9.13;;;8.23;;
4313;SDS011;2170;48.794;9.182;2023-09-07T18:56:50;7.20;;;6.70;;
4313;SDS011;2170;48.794;9.182;2023-09-07T18:59:51;7.20;;;6.40;;
4313;SDS011;2170;48.794;9.182;2023-09-07T19:02:37;8.10;;;7.40;;
4313;SDS011;2170;48.794;9.182;2023-09-07T19:05:30;7.90;;;7.20;;
4313;SDS011;2170;48.794;9.182;2023-09-07T19:08:13;8.33;;;7.63;;
4313;SDS011;2170;48.794;9.182;2023-09-07T19:10:44;7.60;;;7.00;;
4313;SDS011;2170;48.794;9.182;2023-09-07T19:13:49;8.33;;;7.47;;
4313;SDS011;2170;48.794;9.182;2023-09-07T19:16:49;10.30;;;9.33;;
4313;SDS011;2170;48.794;9.182;2023-09-07T19:19:51;9.10;;;8.20;;
4313;SDS011;2170;48.794;9.182;2023-09-07T19:22:22;8.73;;;7.93;;
4313;SDS011;2170;48.794;9.182;2023-09-07T19:25:05;8.67;;;7.77;;
4313;SDS011;2170;48.794;9.182;2023-09-07T19:28:11;9.40;;;8.47;;
4313;SDS011;2170;48.794;9.182;2023-09-07T19:31:12;9.03;;;8.13;;
4313;SDS011;2170;48.794;9.182;2023-09-07T19:34:06;10.77;;;9.47;;
4313;SDS011;2170;48.794;9.182;2023-09-07T19:37:42;12.40;;;10.00;;
4313;SDS011;2170;48.794;9.182;2023-09-07T19:40:18;8.87;;;8.17;;
4313;SDS011;2170;48.794;9.182;2023-09-07T19:42:54;9.97;;;9.10;;
4313;SDS011;2170;48.794;9.182;2023-09-07T19:45:31;12.27;;;9.40;;
4313;SDS011;2170;48.794;9.182;2023-09-07T19:52:05;9.93;;;8.93;;
4313;SDS011;2170;48.794;9.182;2023-09-07T19:54:59;11.73;;;10.53;;
4313;SDS011;2170;48.794;9.182;2023-09-07T19:58:26;12.73;;;11.30;;
4313;SDS011;2170;48.794;9.182;2023-09-07T20:00:43;10.23;;;9.00;;
4313;SDS011;2170;48.794;9.182;2023-09-07T20:03:20;9.23;;;8.43;;
4313;SDS011;2170;48.794;9.182;2023-09-07T20:06:00;7.63;;;6.97;;
4313;SDS011;2170;48.794;9.182;2023-09-07T20:08:41;8.80;;;8.13;;
4313;SDS011;2170;48.794;9.182;2023-09-07T20:11:10;42.27;;;37.93;;
4313;SDS011;2170;48.794;9.182;2023-09-07T20:13:48;12.27;;;11.13;;
4313;SDS011;2170;48.794;9.182;2023-09-07T20:16:22;19.87;;;17.77;;
4313;SDS011;2170;48.794;9.182;2023-09-07T20:18:54;24.63;;;22.03;;
4313;SDS011;2170;48.794;9.182;2023-09-07T20:21:33;14.70;;;11.70;;
4313;SDS011;2170;48.794;9.182;2023-09-07T20:24:19;8.70;;;8.00;;
4313;SDS011;2170;48.794;9.182;2023-09-07T20:26:58;8.70;;;8.07;;
4313;SDS011;2170;48.794;9.182;2023-09-07T20:29:36;10.23;;;7.50;;
4313;SDS011;2170;48.794;9.182;2023-09-07T20:32:05;8.67;;;8.00;;
4313;SDS011;2170;48.794;9.182;2023-09-07T20:34:56;9.77;;;8.80;;
4313;SDS011;2170;48.794;9.182;2023-09-07T20:40:53;9.47;;;8.67;;